createdAt,value
2023-01-04T17:55:18.771Z,1.82
2023-01-04T18:00:25.087Z,1.55
2023-01-04T18:05:39.480Z,1.72
2023-01-04T18:10:48.775Z,1.97
2023-01-04T18:15:55.188Z,2.57
2023-01-04T18:20:49.499Z,1.84
2023-01-04T18:25:55.571Z,2.29
2023-01-04T18:31:01.735Z,2.55
2023-01-04T18:36:08.181Z,2.40
2023-01-04T18:41:14.560Z,2.55
2023-01-04T18:46:20.893Z,2.46
2023-01-04T18:51:27.199Z,2.79
2023-01-04T18:56:33.741Z,2.45
2023-01-04T19:01:40.062Z,3.07
2023-01-04T19:06:46.263Z,2.98
2023-01-04T19:11:52.425Z,2.96
2023-01-04T19:16:59.120Z,3.00
2023-01-04T19:22:05.293Z,2.96
2023-01-04T19:27:11.774Z,2.75
2023-01-04T19:32:17.932Z,3.21
2023-01-04T19:37:24.187Z,2.83
2023-01-04T19:42:30.454Z,3.13
2023-01-04T19:47:36.752Z,3.05
2023-01-04T19:52:43.098Z,3.16
2023-01-04T19:57:49.809Z,3.21
2023-01-04T20:02:57.152Z,3.06
2023-01-04T20:08:03.217Z,3.17
2023-01-04T20:13:09.585Z,3.34
2023-01-04T20:18:16.889Z,3.12
2023-01-04T20:23:23.053Z,3.63
2023-01-04T20:28:29.447Z,3.40
2023-01-04T20:33:35.831Z,3.11
2023-01-04T20:38:42.080Z,3.61
2023-01-04T20:43:48.237Z,3.71
2023-01-04T20:48:54.592Z,3.44
2023-01-04T20:54:00.809Z,3.64
2023-01-04T20:59:07.450Z,3.54
2023-01-04T21:04:18.611Z,4.04
2023-01-04T21:09:15.095Z,3.63
2023-01-04T21:14:21.571Z,4.05
2023-01-04T21:19:27.942Z,4.04
2023-01-04T21:24:34.132Z,4.21
2023-01-04T21:29:40.972Z,3.73
2023-01-04T21:34:47.157Z,3.78
2023-01-04T21:39:53.636Z,3.91
2023-01-04T21:44:59.873Z,3.78
2023-01-04T21:50:06.240Z,3.72
2023-01-04T21:55:12.448Z,3.88
2023-01-04T22:00:18.918Z,3.95
2023-01-04T22:05:25.083Z,4.13
2023-01-04T22:10:32.231Z,4.02
2023-01-04T22:15:38.656Z,3.80
2023-01-04T22:20:45.333Z,4.00
2023-01-04T22:25:51.487Z,4.30
2023-01-04T22:30:57.970Z,4.89
2023-01-04T22:36:04.313Z,5.00
2023-01-04T22:41:10.807Z,5.37
2023-01-04T22:46:17.156Z,4.90
2023-01-04T22:51:23.071Z,4.69
2023-01-04T22:56:29.230Z,4.86
2023-01-04T23:01:35.698Z,5.04
2023-01-04T23:06:41.842Z,4.66
2023-01-04T23:11:48.190Z,4.97
2023-01-04T23:16:54.409Z,4.61
2023-01-04T23:22:00.916Z,4.71
2023-01-04T23:27:07.228Z,4.70
2023-01-04T23:32:13.638Z,4.72
2023-01-04T23:37:20.003Z,4.74
2023-01-04T23:42:26.403Z,4.63
2023-01-04T23:47:32.772Z,4.46
2023-01-04T23:52:39.332Z,4.48
2023-01-04T23:57:45.644Z,4.63
